Time;durP1;ratioP1;P1;durP2;ratioP2;P2;SDS_P1;SDS_P2;PMS_P1;PMS_P2;Temp;Humidity;BMP_temperature;BMP_pressure;BME280_temperature;BME280_humidity;BME280_pressure;Samples;Min_cycle;Max_cycle;Signal;HPM_P1;HPM_P2
2023/01/19 08:37:00;;;;;;;;;;;;;;;-1.47;76.82;97213.75;5638028;23;19964;-66
2023/01/19 08:39:26;;;;;;;;;;;;;;;-1.43;77.56;97217.03;4843955;29;19944;-66
2023/01/19 08:41:51;;;;;;;;;;;;;;;-1.38;76.47;97211.72;4837524;29;19928;-69
2023/01/19 08:44:16;;;;;;;;;;;;;;;-1.38;76.15;97215.13;4840992;29;19995;-65
2023/01/19 08:46:42;;;;;;;;;;;;;;;-1.35;76.32;97220.16;4830599;29;19927;-67
2023/01/19 08:49:07;;;;;;;;;;;;;;;-1.30;77.07;97215.72;4842502;29;19921;-68
2023/01/19 08:51:32;;;;;;;;;;;;;;;-1.28;76.26;97223.34;4841867;29;19923;-67
2023/01/19 08:53:58;;;;;;;;;;;;;;;-1.28;76.31;97216.47;4843800;29;19921;-69
2023/01/19 08:56:23;;;;;;;;;;;;;;;-1.23;76.72;97222.28;4844242;29;19923;-66
2023/01/19 08:58:48;;;;;;;;;;;;;;;-1.20;76.44;97224.75;4841599;29;20392;-65
2023/01/19 09:01:15;;;;;;;;;;;;;;;-1.14;76.16;97231.41;4856655;29;20613;-66
2023/01/19 09:03:40;;;;;;;;;;;;;;;-1.06;76.81;97231.13;4843777;29;19928;-67
2023/01/19 09:06:06;;;;;;;;;;;;;;;-1.01;76.35;97231.78;4843238;29;19925;-66
2023/01/19 09:08:31;;;;;;;;;;;;;;;-0.98;75.98;97239.38;4843456;29;19916;-66
2023/01/19 09:10:56;;;;;;;;;;;;;;;-0.94;75.76;97238.38;4836448;29;19945;-66
2023/01/19 09:13:22;;;;;;;;;;;;;;;-0.96;75.64;97243.59;4842878;29;19924;-66
2023/01/19 09:15:47;;;;;;;;;;;;;;;-0.89;76.00;97241.63;4842935;29;20003;-64
2023/01/19 09:18:13;;;;;;;;;;;;;;;-0.86;75.97;97246.66;4843123;29;19959;-65
2023/01/19 09:20:39;;;;;;;;;;;;;;;-0.83;75.01;97250.84;4840385;29;19924;-65
2023/01/19 09:23:04;;;;;;;;;;;;;;;-0.83;75.27;97251.66;4840668;29;19925;-65
2023/01/19 09:25:30;;;;;;;;;;;;;;;-0.77;75.63;97251.44;4843761;29;19916;-66
2023/01/19 09:27:55;;;;;;;;;;;;;;;-0.77;75.47;97250.59;4843529;29;19917;-65
2023/01/19 09:30:20;;;;;;;;;;;;;;;-0.74;75.70;97245.34;4841917;29;19928;-66
2023/01/19 09:32:45;;;;;;;;;;;;;;;-0.69;75.32;97247.72;4842166;29;19921;-65
2023/01/19 09:35:11;;;;;;;;;;;;;;;-0.65;75.46;97249.31;4843245;29;20338;-65
2023/01/19 09:37:36;;;;;;;;;;;;;;;-0.61;74.73;97245.72;4843334;29;20290;-65
2023/01/19 09:40:02;;;;;;;;;;;;;;;-0.58;75.17;97256.72;4842208;29;20050;-66
2023/01/19 09:42:33;;;;;;;;;;;;;;;-0.55;74.39;97258.31;4840501;29;19924;-67
2023/01/19 09:44:58;;;;;;;;;;;;;;;-0.51;74.02;97259.91;4835837;29;19924;-65
2023/01/19 09:47:24;;;;;;;;;;;;;;;-0.46;74.50;97254.56;4843192;29;19927;-65
2023/01/19 09:49:51;;;;;;;;;;;;;;;-0.42;74.74;97261.25;4855690;29;19920;-65
2023/01/19 09:52:17;;;;;;;;;;;;;;;-0.38;73.93;97258.53;4836866;29;19927;-65
2023/01/19 09:54:43;;;;;;;;;;;;;;;-0.36;73.98;97255.88;4842823;29;20010;-66
2023/01/19 09:57:11;;;;;;;;;;;;;;;-0.31;74.74;97254.81;4842939;29;20343;-65
2023/01/19 09:59:37;;;;;;;;;;;;;;;-0.27;73.61;97256.34;4840325;29;19921;-64
2023/01/19 10:02:11;;;;;;;;;;;;;;;-0.17;73.10;97258.53;4838489;29;19924;-64
2023/01/19 10:04:40;;;;;;;;;;;;;;;-0.08;73.21;97245.28;4841258;29;20015;-65
2023/01/19 10:07:07;;;;;;;;;;;;;;;0.00;73.18;97248.41;4842990;29;19917;-63
2023/01/19 10:09:39;;;;;;;;;;;;;;;0.12;73.44;97244.47;4826342;29;20385;-63
2023/01/19 10:12:15;;;;;;;;;;;;;;;0.31;72.99;97247.09;4839009;29;19924;-64
2023/01/19 10:14:44;;;;;;;;;;;;;;;0.47;72.03;97242.94;4841327;29;20386;-65
2023/01/19 10:17:16;;;;;;;;;;;;;;;0.57;71.36;97248.56;4841290;29;19916;-65
2023/01/19 10:19:43;;;;;;;;;;;;;;;0.71;71.27;97247.03;4842719;29;20220;-66
2023/01/19 10:22:18;;;;;;;;;;;;;;;0.81;71.28;97256.94;4839727;29;19921;-67
2023/01/19 10:24:43;;;;;;;;;;;;;;;0.86;70.82;97249.81;4839549;29;19931;-67
2023/01/19 10:27:16;;;;;;;;;;;;;;;0.92;71.39;97254.72;4856663;29;19917;-67
2023/01/19 10:29:41;;;;;;;;;;;;;;;1.00;70.37;97255.22;4853410;29;20412;-70
2023/01/19 10:32:08;;;;;;;;;;;;;;;1.06;70.39;97257.50;4853005;29;20218;-66
2023/01/19 10:34:33;;;;;;;;;;;;;;;1.15;70.01;97251.94;4854475;29;19952;-68
2023/01/19 10:37:03;;;;;;;;;;;;;;;1.19;69.73;97253.47;4856490;29;19968;-68
2023/01/19 10:39:28;;;;;;;;;;;;;;;1.19;69.72;97252.63;4841464;29;19917;-70
2023/01/19 10:41:53;;;;;;;;;;;;;;;1.23;69.64;97253.31;4841130;29;20450;-68
2023/01/19 10:44:22;;;;;;;;;;;;;;;1.17;68.17;97257.88;4840809;29;19920;-68
2023/01/19 10:46:48;;;;;;;;;;;;;;;1.19;68.48;97248.31;4839976;29;19924;-70
2023/01/19 10:49:23;;;;;;;;;;;;;;;1.22;67.82;97251.66;4840917;29;20338;-69
2023/01/19 10:51:49;;;;;;;;;;;;;;;1.15;68.40;97251.94;4840997;29;20586;-69
2023/01/19 10:54:14;;;;;;;;;;;;;;;1.19;68.79;97250.88;4840776;29;19916;-68
2023/01/19 10:56:39;;;;;;;;;;;;;;;1.20;68.73;97243.97;4840465;29;20299;-70
2023/01/19 10:59:05;;;;;;;;;;;;;;;1.31;68.90;97246.09;4837484;29;19920;-71
2023/01/19 11:01:34;;;;;;;;;;;;;;;1.41;68.40;97247.28;4856071;29;19964;-71
2023/01/19 11:04:04;;;;;;;;;;;;;;;1.65;67.77;97240.97;4841739;29;19920;-72
2023/01/19 11:06:29;;;;;;;;;;;;;;;1.82;67.63;97237.56;4840168;29;19972;-73
2023/01/19 11:09:10;;;;;;;;;;;;;;;1.97;66.32;97250.66;4854430;29;20314;-69
2023/01/19 11:11:40;;;;;;;;;;;;;;;2.15;65.16;97236.81;4839941;29;20377;-68
2023/01/19 11:14:10;;;;;;;;;;;;;;;2.27;64.37;97232.75;4840213;29;19920;-68
2023/01/19 11:16:36;;;;;;;;;;;;;;;2.49;63.41;97233.34;4840798;29;19916;-69
2023/01/19 11:19:02;;;;;;;;;;;;;;;2.64;62.87;97231.72;4840472;29;19916;-66
2023/01/19 11:21:27;;;;;;;;;;;;;;;2.90;62.37;97230.34;4825444;29;20385;-68
2023/01/19 11:23:54;;;;;;;;;;;;;;;3.02;62.33;97229.69;4840266;29;20384;-69
2023/01/19 11:26:38;;;;;;;;;;;;;;;3.03;61.88;97233.97;4840424;29;19999;-65
2023/01/19 11:29:03;;;;;;;;;;;;;;;2.91;61.45;97238.94;4839580;29;20220;-65
2023/01/19 11:31:28;;;;;;;;;;;;;;;2.89;61.26;97230.41;4825289;29;19960;-65
2023/01/19 11:33:57;;;;;;;;;;;;;;;2.92;61.60;97228.50;4841254;29;20004;-65
2023/01/19 11:36:23;;;;;;;;;;;;;;;2.95;61.60;97225.75;4840197;29;19920;-66
2023/01/19 11:38:49;;;;;;;;;;;;;;;2.91;61.81;97228.59;4838432;29;20301;-66
2023/01/19 11:41:15;;;;;;;;;;;;;;;2.87;61.93;97227.91;4839694;29;19949;-65
2023/01/19 11:43:41;;;;;;;;;;;;;;;2.83;61.51;97221.25;4840182;29;19959;-65
2023/01/19 11:46:06;;;;;;;;;;;;;;;2.94;62.34;97215.47;4855878;29;20020;-70
2023/01/19 11:48:32;;;;;;;;;;;;;;;2.96;62.13;97221.41;4855905;29;19969;-67
2023/01/19 11:50:58;;;;;;;;;;;;;;;3.02;62.25;97218.47;4839269;29;19920;-67
2023/01/19 11:53:24;;;;;;;;;;;;;;;3.14;62.75;97224.78;4839930;29;19923;-67
2023/01/19 11:55:51;;;;;;;;;;;;;;;3.32;62.49;97210.81;4840147;29;19917;-71
2023/01/19 11:58:17;;;;;;;;;;;;;;;3.28;60.71;97212.72;4840299;29;19917;-70
2023/01/19 12:01:01;;;;;;;;;;;;;;;3.33;61.05;97221.06;4839492;29;19931;-70
2023/01/19 12:03:29;;;;;;;;;;;;;;;3.30;61.31;97204.84;4840877;29;19956;-68
2023/01/19 12:05:55;;;;;;;;;;;;;;;3.30;60.85;97207.44;4841299;29;20345;-72
2023/01/19 12:08:22;;;;;;;;;;;;;;;3.29;61.28;97208.38;4840002;29;19923;-67
2023/01/19 12:10:47;;;;;;;;;;;;;;;3.23;61.17;97213.88;4838289;29;20127;-67
2023/01/19 12:13:22;;;;;;;;;;;;;;;3.24;60.90;97211.22;4840355;29;20032;-69
2023/01/19 12:15:49;;;;;;;;;;;;;;;3.20;60.99;97214.06;4851453;29;19920;-71
2023/01/19 12:18:21;;;;;;;;;;;;;;;3.03;61.14;97218.41;4850094;29;20023;-71
2023/01/19 12:20:53;;;;;;;;;;;;;;;2.90;61.50;97220.00;4855430;29;19923;-71
2023/01/19 12:23:19;;;;;;;;;;;;;;;2.61;61.47;97218.91;4839400;29;19924;-70
2023/01/19 12:25:50;;;;;;;;;;;;;;;2.55;62.49;97225.28;4839604;29;19977;-70
2023/01/19 12:28:16;;;;;;;;;;;;;;;2.44;62.91;97230.16;4841239;29;19917;-69
2023/01/19 12:30:47;;;;;;;;;;;;;;;2.42;63.24;97226.81;4855272;29;19917;-68
2023/01/19 12:33:33;;;;;;;;;;;;;;;2.37;63.36;97218.44;4853407;29;19967;-67
2023/01/19 12:35:59;;;;;;;;;;;;;;;2.29;63.13;97220.59;4852277;29;20388;-70
2023/01/19 12:38:34;;;;;;;;;;;;;;;2.34;63.55;97228.94;4841019;29;19931;-69
2023/01/19 12:41:14;;;;;;;;;;;;;;;2.41;62.82;97226.88;4852769;29;19959;-70
2023/01/19 12:43:39;;;;;;;;;;;;;;;2.49;62.96;97225.59;4839751;29;19929;-70
2023/01/19 12:46:17;;;;;;;;;;;;;;;2.73;62.42;97220.88;4840298;29;20062;-70
2023/01/19 12:48:42;;;;;;;;;;;;;;;2.89;61.07;97220.91;4858123;29;20337;-70
2023/01/19 12:51:07;;;;;;;;;;;;;;;3.05;60.77;97220.91;4844167;29;20444;-68
2023/01/19 12:53:33;;;;;;;;;;;;;;;3.13;61.00;97225.66;4849037;29;20482;-69
2023/01/19 12:55:58;;;;;;;;;;;;;;;3.17;59.67;97222.03;4843434;29;19920;-68
2023/01/19 12:58:24;;;;;;;;;;;;;;;3.08;60.18;97220.75;4858056;29;19917;-69
2023/01/19 13:00:50;;;;;;;;;;;;;;;3.15;60.06;97213.47;4842436;29;19920;-72
2023/01/19 13:03:15;;;;;;;;;;;;;;;3.24;59.91;97210.41;4842727;29;19924;-69
2023/01/19 13:05:40;;;;;;;;;;;;;;;3.19;59.35;97213.22;4841907;29;19978;-68
2023/01/19 13:08:05;;;;;;;;;;;;;;;3.15;60.19;97205.72;4841729;29;19921;-69
2023/01/19 13:10:49;;;;;;;;;;;;;;;3.14;61.12;97214.41;4838048;29;19920;-71
2023/01/19 13:13:18;;;;;;;;;;;;;;;3.01;60.09;97209.06;4843935;29;19917;-69
2023/01/19 13:15:43;;;;;;;;;;;;;;;2.90;59.97;97217.41;4842262;29;19925;-68
2023/01/19 13:18:08;;;;;;;;;;;;;;;2.81;61.03;97210.09;4842222;29;20035;-68
2023/01/19 13:20:42;;;;;;;;;;;;;;;2.80;61.07;97211.03;4841926;29;19923;-67
2023/01/19 13:23:18;;;;;;;;;;;;;;;2.81;61.55;97210.09;4842089;29;19920;-71
2023/01/19 13:25:45;;;;;;;;;;;;;;;2.75;60.64;97207.84;4842927;29;19948;-70
2023/01/19 13:28:11;;;;;;;;;;;;;;;2.70;61.75;97215.03;4840944;29;19927;-70
2023/01/19 13:30:38;;;;;;;;;;;;;;;2.63;60.84;97213.69;4841888;29;19917;-67
2023/01/19 13:33:05;;;;;;;;;;;;;;;2.43;62.12;97212.13;4842086;29;19920;-66
2023/01/19 13:35:30;;;;;;;;;;;;;;;2.43;61.87;97212.13;4857777;29;19982;-67
2023/01/19 13:37:55;;;;;;;;;;;;;;;2.36;62.13;97207.25;4841636;29;20365;-67
2023/01/19 13:40:21;;;;;;;;;;;;;;;2.40;62.18;97202.75;4842324;29;20360;-67
2023/01/19 13:42:47;;;;;;;;;;;;;;;2.44;62.69;97209.44;4857566;29;19916;-70
2023/01/19 13:45:16;;;;;;;;;;;;;;;2.43;62.63;97212.94;4841894;29;20301;-68
2023/01/19 13:47:42;;;;;;;;;;;;;;;2.47;62.70;97209.28;4840989;29;19916;-69
2023/01/19 13:50:24;;;;;;;;;;;;;;;2.49;62.36;97217.00;4841019;29;20421;-68
2023/01/19 13:52:52;;;;;;;;;;;;;;;2.55;62.01;97212.34;4857173;29;19923;-68
2023/01/19 13:55:19;;;;;;;;;;;;;;;2.50;61.58;97214.31;4841810;29;19965;-67
2023/01/19 13:57:44;;;;;;;;;;;;;;;2.53;62.29;97214.16;4842967;29;19916;-70
2023/01/19 14:00:15;;;;;;;;;;;;;;;2.63;62.92;97214.50;4825453;29;19972;-67
2023/01/19 14:02:41;;;;;;;;;;;;;;;2.59;62.48;97216.44;4842812;29;19920;-67
2023/01/19 14:05:20;;;;;;;;;;;;;;;5.88;86.38;97217.00;4842662;29;19917;-68
2023/01/19 14:07:45;;;;;;;;;;;;;;;10.39;60.84;97199.19;4841685;29;19917;-69
2023/01/19 14:10:11;;;;;;;;;;;;;;;12.31;51.37;97196.41;4840679;29;19917;-68
2023/01/19 14:12:36;;;;;;;;;;;;;;;12.84;47.23;97190.59;4841445;29;19920;-68
2023/01/19 14:15:03;;;;;;;;;;;;;;;10.97;39.91;97204.75;4841450;29;19939;-69
2023/01/19 14:17:29;;;;;;;;;;;;;;;8.74;43.70;97208.06;4842730;29;19916;-70
2023/01/19 14:19:55;;;;;;;;;;;;;;;7.18;47.57;97215.16;4840595;29;19923;-68
2023/01/19 14:22:20;;;;;;;;;;;;;;;6.28;50.42;97219.59;4839635;29;19920;-70
2023/01/19 14:24:45;;;;;;;;;;;;;;;5.52;51.73;97225.41;4840920;29;19921;-69
2023/01/19 14:27:18;;;;;;;;;;;;;;;5.00;53.43;97220.88;4842505;29;19972;-69
2023/01/19 14:29:44;;;;;;;;;;;;;;;4.60;55.27;97215.50;4841442;29;19920;-69
2023/01/19 14:32:17;;;;;;;;;;;;;;;4.35;56.04;97221.34;4842511;29;20436;-68
2023/01/19 14:34:46;;;;;;;;;;;;;;;4.18;56.91;97216.28;4839552;29;19999;-67
2023/01/19 14:37:14;;;;;;;;;;;;;;;3.98;57.63;97217.44;4840823;29;20381;-68
2023/01/19 14:39:42;;;;;;;;;;;;;;;3.80;57.87;97225.38;4842457;29;19917;-68
2023/01/19 14:42:10;;;;;;;;;;;;;;;3.67;58.80;97223.56;4842334;29;19941;-69
2023/01/19 14:44:36;;;;;;;;;;;;;;;3.53;59.30;97219.97;4839241;29;19950;-69
2023/01/19 14:47:01;;;;;;;;;;;;;;;3.38;59.75;97228.63;4825635;29;19924;-69
2023/01/19 14:49:27;;;;;;;;;;;;;;;3.28;60.86;97224.84;4841086;29;19917;-67
2023/01/19 14:51:52;;;;;;;;;;;;;;;3.14;60.89;97235.13;4842156;29;19927;-69
2023/01/19 14:54:17;;;;;;;;;;;;;;;3.05;61.09;97233.88;4839156;29;20023;-68
2023/01/19 14:56:43;;;;;;;;;;;;;;;2.93;61.01;97232.78;4837936;29;20381;-69
2023/01/19 14:59:08;;;;;;;;;;;;;;;2.86;61.54;97231.44;4841552;29;19928;-69
2023/01/19 15:01:33;;;;;;;;;;;;;;;2.70;61.88;97235.75;4840989;29;19917;-68
2023/01/19 15:03:59;;;;;;;;;;;;;;;2.64;62.96;97238.66;4841760;29;19967;-67
2023/01/19 15:06:24;;;;;;;;;;;;;;;2.59;61.87;97239.72;4840417;29;19956;-68
2023/01/19 15:08:50;;;;;;;;;;;;;;;2.55;62.48;97238.22;4840123;29;19924;-68
2023/01/19 15:11:15;;;;;;;;;;;;;;;2.57;62.75;97241.53;4840531;29;19916;-68
2023/01/19 15:13:40;;;;;;;;;;;;;;;2.48;62.12;97244.63;4841641;29;19922;-68
2023/01/19 15:16:07;;;;;;;;;;;;;;;2.45;62.55;97237.00;4839783;29;19924;-69
2023/01/19 15:18:32;;;;;;;;;;;;;;;2.39;63.54;97237.31;4841106;29;19920;-67
2023/01/19 15:21:01;;;;;;;;;;;;;;;2.29;63.24;97230.94;4841640;29;20345;-66
2023/01/19 15:23:27;;;;;;;;;;;;;;;2.19;63.52;97234.91;4841363;29;19928;-68
2023/01/19 15:25:52;;;;;;;;;;;;;;;2.08;63.84;97236.28;4840763;29;19920;-68
2023/01/19 15:28:18;;;;;;;;;;;;;;;1.98;64.31;97237.66;4840629;29;19969;-68
2023/01/19 15:30:43;;;;;;;;;;;;;;;1.94;64.38;97240.47;4840531;29;19925;-68
2023/01/19 15:33:11;;;;;;;;;;;;;;;1.93;64.19;97239.63;4839244;29;19927;-69
2023/01/19 15:35:36;;;;;;;;;;;;;;;1.86;64.31;97233.94;4855884;29;19932;-68
2023/01/19 15:38:01;;;;;;;;;;;;;;;1.78;64.48;97238.63;4840127;29;20301;-69
2023/01/19 15:40:27;;;;;;;;;;;;;;;1.76;65.31;97239.63;4841563;29;20329;-68
2023/01/19 15:42:52;;;;;;;;;;;;;;;1.70;64.92;97240.75;4840348;29;20469;-68
2023/01/19 15:45:33;;;;;;;;;;;;;;;1.64;65.38;97239.28;4841356;29;19956;-68
2023/01/19 15:48:02;;;;;;;;;;;;;;;1.54;65.36;97243.22;4840100;29;19921;-67
2023/01/19 15:50:28;;;;;;;;;;;;;;;1.48;66.24;97245.25;4855507;29;19924;-66
2023/01/19 15:52:53;;;;;;;;;;;;;;;1.47;66.52;97241.84;4841442;29;19923;-68
2023/01/19 15:55:18;;;;;;;;;;;;;;;1.43;66.89;97240.31;4840052;29;19928;-70
2023/01/19 15:57:43;;;;;;;;;;;;;;;1.36;66.96;97238.94;4841435;29;19916;-69
2023/01/19 16:00:09;;;;;;;;;;;;;;;1.31;67.64;97240.91;4841391;29;19917;-68
2023/01/19 16:02:34;;;;;;;;;;;;;;;1.27;67.32;97244.53;4839392;29;19927;-68
2023/01/19 16:04:59;;;;;;;;;;;;;;;1.25;67.80;97246.34;4855123;29;19921;-68
2023/01/19 16:07:25;;;;;;;;;;;;;;;1.22;68.24;97246.50;4841440;29;20388;-66
2023/01/19 16:09:50;;;;;;;;;;;;;;;1.19;68.23;97253.47;4841505;29;20446;-67
2023/01/19 16:12:15;;;;;;;;;;;;;;;1.17;68.52;97254.44;4841871;29;20513;-67
2023/01/19 16:14:40;;;;;;;;;;;;;;;1.14;68.71;97250.28;4840161;29;20381;-69
2023/01/19 16:17:05;;;;;;;;;;;;;;;1.12;69.26;97251.25;4840425;29;20445;-67
2023/01/19 16:19:31;;;;;;;;;;;;;;;1.07;69.08;97248.88;4841162;29;20377;-68
2023/01/19 16:21:56;;;;;;;;;;;;;;;1.02;69.37;97255.97;4844062;29;20377;-68
2023/01/19 16:24:21;;;;;;;;;;;;;;;1.00;69.37;97257.81;4843889;29;20445;-69
2023/01/19 16:26:46;;;;;;;;;;;;;;;0.93;69.68;97254.66;4844144;29;19920;-67
2023/01/19 16:29:12;;;;;;;;;;;;;;;0.91;69.92;97258.22;4844822;29;20364;-67
2023/01/19 16:31:37;;;;;;;;;;;;;;;0.86;69.67;97255.00;4844617;29;20429;-70
2023/01/19 16:34:02;;;;;;;;;;;;;;;0.79;70.03;97253.59;4843188;29;20437;-66
2023/01/19 16:36:29;;;;;;;;;;;;;;;0.78;69.73;97257.09;4844390;29;19920;-67
2023/01/19 16:38:56;;;;;;;;;;;;;;;0.70;69.50;97255.69;4844830;29;19917;-68
2023/01/19 16:41:22;;;;;;;;;;;;;;;0.69;69.77;97259.19;4843142;29;20405;-67
2023/01/19 16:43:48;;;;;;;;;;;;;;;0.65;69.97;97262.81;4843980;29;19956;-68
2023/01/19 16:46:18;;;;;;;;;;;;;;;0.65;69.93;97262.81;4843107;29;19920;-68
2023/01/19 16:48:43;;;;;;;;;;;;;;;0.59;70.02;97260.50;4843234;29;20342;-68
2023/01/19 16:51:08;;;;;;;;;;;;;;;0.60;70.07;97263.91;4844326;29;19920;-68
2023/01/19 16:53:34;;;;;;;;;;;;;;;0.56;70.56;97263.19;4844019;29;19965;-68
2023/01/19 16:56:03;;;;;;;;;;;;;;;0.57;70.71;97264.03;4842185;29;19921;-69
2023/01/19 16:58:28;;;;;;;;;;;;;;;0.52;70.32;97261.66;4842931;29;19916;-67
2023/01/19 17:00:53;;;;;;;;;;;;;;;0.57;70.34;97264.88;4843081;29;20266;-69
2023/01/19 17:03:18;;;;;;;;;;;;;;;0.58;70.33;97271.69;4842972;29;19946;-67
2023/01/19 17:05:47;;;;;;;;;;;;;;;0.63;70.75;97269.75;4842242;29;19920;-68
2023/01/19 17:08:13;;;;;;;;;;;;;;;0.64;70.07;97268.03;4858037;29;19916;-71
2023/01/19 17:10:39;;;;;;;;;;;;;;;0.65;70.19;97267.09;4843248;29;19944;-71
2023/01/19 17:13:05;;;;;;;;;;;;;;;0.67;70.18;97273.88;4842273;29;20381;-68
2023/01/19 17:15:30;;;;;;;;;;;;;;;0.69;70.45;97274.66;4842827;29;19923;-68
2023/01/19 17:17:55;;;;;;;;;;;;;;;0.70;70.50;97265.19;4843640;29;19999;-67
2023/01/19 17:20:20;;;;;;;;;;;;;;;0.75;70.34;97267.53;4842796;29;19924;-69
2023/01/19 17:22:46;;;;;;;;;;;;;;;0.70;70.07;97267.75;4843659;29;20015;-69
2023/01/19 17:25:11;;;;;;;;;;;;;;;0.71;69.86;97270.25;4842303;29;20056;-69
2023/01/19 17:27:36;;;;;;;;;;;;;;;0.68;70.37;97272.97;4843100;29;20018;-69
2023/01/19 17:30:02;;;;;;;;;;;;;;;0.68;70.26;97279.88;4843378;29;20008;-69
2023/01/19 17:32:28;;;;;;;;;;;;;;;0.69;70.64;97279.00;4841809;29;20022;-70
2023/01/19 17:34:53;;;;;;;;;;;;;;;0.71;70.50;97282.31;4842094;29;19916;-67
2023/01/19 17:37:18;;;;;;;;;;;;;;;0.73;70.47;97280.53;4841326;29;19920;-68
2023/01/19 17:39:43;;;;;;;;;;;;;;;0.73;69.99;97277.13;4842233;29;19917;-68
2023/01/19 17:42:09;;;;;;;;;;;;;;;0.73;70.58;97290.03;4842218;29;20305;-68
2023/01/19 17:44:34;;;;;;;;;;;;;;;0.74;70.44;97286.53;4841947;29;20297;-69
2023/01/19 17:46:59;;;;;;;;;;;;;;;0.76;69.84;97287.28;4841891;29;20271;-67
2023/01/19 17:49:24;;;;;;;;;;;;;;;0.75;70.79;97285.63;4843162;29;19964;-68
2023/01/19 17:51:54;;;;;;;;;;;;;;;0.79;71.06;97289.72;4842259;29;19928;-68
2023/01/19 17:54:19;;;;;;;;;;;;;;;0.83;70.50;97291.31;4842376;29;19920;-67
2023/01/19 17:56:45;;;;;;;;;;;;;;;0.86;70.99;97292.00;4843155;29;19917;-71
2023/01/19 17:59:10;;;;;;;;;;;;;;;0.88;70.98;97287.59;4843138;29;19972;-69
2023/01/19 18:01:39;;;;;;;;;;;;;;;0.90;71.13;97287.53;4841896;29;19917;-70
2023/01/19 18:04:04;;;;;;;;;;;;;;;0.92;71.22;97293.44;4841470;29;19928;-69
2023/01/19 18:06:29;;;;;;;;;;;;;;;0.92;71.90;97293.44;4841835;29;19972;-69
2023/01/19 18:08:55;;;;;;;;;;;;;;;0.92;71.90;97302.03;4841963;29;19920;-67
2023/01/19 18:11:20;;;;;;;;;;;;;;;0.93;71.78;97298.56;4842567;29;19923;-67
2023/01/19 18:13:46;;;;;;;;;;;;;;;0.93;71.41;97301.16;4841447;29;19916;-67
2023/01/19 18:16:12;;;;;;;;;;;;;;;0.96;71.05;97302.72;4841439;29;19924;-66
2023/01/19 18:18:38;;;;;;;;;;;;;;;0.94;70.67;97299.41;4842915;29;19916;-68
2023/01/19 18:21:07;;;;;;;;;;;;;;;0.92;71.06;97301.19;4841539;29;19928;-68
2023/01/19 18:23:32;;;;;;;;;;;;;;;0.90;70.99;97305.59;4840285;29;19925;-70
2023/01/19 18:26:07;;;;;;;;;;;;;;;0.91;71.00;97302.13;4843028;29;19924;-66
2023/01/19 18:28:32;;;;;;;;;;;;;;;0.92;71.50;97306.34;4842667;29;19948;-66
2023/01/19 18:30:58;;;;;;;;;;;;;;;0.91;71.35;97295.19;4836447;29;20333;-67
2023/01/19 18:33:23;;;;;;;;;;;;;;;0.90;71.12;97300.44;4840882;29;20380;-68
2023/01/19 18:35:48;;;;;;;;;;;;;;;0.87;71.20;97301.41;4842410;29;19917;-66
2023/01/19 18:38:13;;;;;;;;;;;;;;;0.85;71.46;97304.97;4840161;29;20415;-67
2023/01/19 18:40:41;;;;;;;;;;;;;;;0.84;71.06;97298.97;4842215;29;20415;-66
2023/01/19 18:43:09;;;;;;;;;;;;;;;0.78;71.38;97304.38;4838477;29;20323;-66
2023/01/19 18:45:35;;;;;;;;;;;;;;;0.76;71.26;97306.22;4823020;29;20388;-67
2023/01/19 18:48:01;;;;;;;;;;;;;;;0.76;71.74;97305.34;4840007;29;19927;-66
2023/01/19 18:50:26;;;;;;;;;;;;;;;0.79;71.85;97297.47;4832585;29;19920;-67
2023/01/19 18:52:51;;;;;;;;;;;;;;;0.78;71.05;97303.56;4839321;29;20424;-66
2023/01/19 18:55:16;;;;;;;;;;;;;;;0.78;71.49;97300.97;4840985;29;20397;-67
2023/01/19 18:57:42;;;;;;;;;;;;;;;0.80;71.78;97296.59;4841963;29;20353;-66
2023/01/19 19:00:07;;;;;;;;;;;;;;;0.84;71.65;97300.72;4841891;29;20365;-66
2023/01/19 19:02:32;;;;;;;;;;;;;;;0.82;71.79;97297.34;4842332;29;19920;-67
2023/01/19 19:04:57;;;;;;;;;;;;;;;0.84;71.97;97298.97;4841654;29;19920;-67
2023/01/19 19:07:23;;;;;;;;;;;;;;;0.85;71.97;97300.63;4839763;29;20004;-66
2023/01/19 19:09:48;;;;;;;;;;;;;;;0.88;71.86;97305.66;4840792;29;19920;-66
2023/01/19 19:12:13;;;;;;;;;;;;;;;0.87;71.64;97298.81;4841631;29;20014;-67
2023/01/19 19:14:39;;;;;;;;;;;;;;;0.89;71.29;97301.31;4840434;29;19999;-67
2023/01/19 19:17:04;;;;;;;;;;;;;;;0.87;71.30;97298.00;4832576;29;19928;-66
2023/01/19 19:19:29;;;;;;;;;;;;;;;0.85;71.93;97305.78;4837414;29;19928;-66
2023/01/19 19:21:55;;;;;;;;;;;;;;;0.85;72.23;97307.53;4840230;29;19937;-66
2023/01/19 19:24:20;;;;;;;;;;;;;;;0.85;72.18;97305.78;4840802;29;19929;-66
2023/01/19 19:26:45;;;;;;;;;;;;;;;0.84;71.96;97308.44;4840872;29;19926;-65
2023/01/19 19:29:11;;;;;;;;;;;;;;;0.86;72.82;97309.22;4855524;29;19916;-67
2023/01/19 19:31:36;;;;;;;;;;;;;;;0.85;72.70;97310.13;4855870;29;19924;-66
2023/01/19 19:34:01;;;;;;;;;;;;;;;0.78;71.96;97298.38;4839842;29;19926;-67
2023/01/19 19:36:27;;;;;;;;;;;;;;;0.79;72.55;97298.34;4841371;29;19917;-66
2023/01/19 19:38:52;;;;;;;;;;;;;;;0.81;72.65;97309.41;4839571;29;19924;-67
2023/01/19 19:41:18;;;;;;;;;;;;;;;0.86;73.36;97311.78;4839695;29;20011;-66
2023/01/19 19:43:43;;;;;;;;;;;;;;;0.90;73.69;97313.34;4839715;29;19950;-67
2023/01/19 19:46:09;;;;;;;;;;;;;;;0.92;72.99;97314.09;4841371;29;19916;-66
2023/01/19 19:48:35;;;;;;;;;;;;;;;0.93;72.47;97313.22;4838941;29;19924;-66
2023/01/19 19:51:04;;;;;;;;;;;;;;;0.93;72.76;97316.63;4841296;29;20296;-67
2023/01/19 19:53:29;;;;;;;;;;;;;;;0.97;73.58;97317.34;4869024;29;19927;-67
2023/01/19 19:55:55;;;;;;;;;;;;;;;1.00;73.09;97324.97;4862848;29;19916;-67
2023/01/19 19:58:20;;;;;;;;;;;;;;;0.97;72.75;97317.34;4851335;29;20007;-66
2023/01/19 20:00:46;;;;;;;;;;;;;;;1.03;72.87;97321.38;4841614;29;20003;-66
2023/01/19 20:03:28;;;;;;;;;;;;;;;1.03;72.30;97319.63;4813334;29;20157;-67
2023/01/19 20:05:53;;;;;;;;;;;;;;;1.07;73.34;97323.78;4824173;29;19972;-69
2023/01/19 20:08:18;;;;;;;;;;;;;;;1.11;73.37;97324.47;4841241;29;19917;-68
2023/01/19 20:10:43;;;;;;;;;;;;;;;1.14;73.23;97317.44;4841163;29;19999;-68
2023/01/19 20:13:08;;;;;;;;;;;;;;;1.14;72.87;97322.59;4842303;29;20057;-70
2023/01/19 20:15:34;;;;;;;;;;;;;;;1.10;71.32;97320.19;4841672;29;20011;-67
2023/01/19 20:17:59;;;;;;;;;;;;;;;1.12;73.07;97329.56;4849145;29;20015;-68
2023/01/19 20:20:26;;;;;;;;;;;;;;;1.16;73.84;97330.25;4841000;29;19924;-67
2023/01/19 20:22:51;;;;;;;;;;;;;;;1.18;73.09;97323.28;4841592;29;20296;-67
2023/01/19 20:25:17;;;;;;;;;;;;;;;1.18;73.38;97325.88;4843028;29;20377;-67
2023/01/19 20:27:42;;;;;;;;;;;;;;;1.22;73.45;97324.81;4842255;29;19920;-69
2023/01/19 20:30:07;;;;;;;;;;;;;;;1.23;73.91;97331.66;4857574;29;20282;-70
2023/01/19 20:32:32;;;;;;;;;;;;;;;1.25;73.57;97329.03;4841551;29;20563;-67
2023/01/19 20:34:58;;;;;;;;;;;;;;;1.29;74.30;97335.72;4840534;29;20445;-66
2023/01/19 20:37:23;;;;;;;;;;;;;;;1.31;74.36;97331.34;4840871;29;20456;-66
2023/01/19 20:39:48;;;;;;;;;;;;;;;1.34;74.32;97338.91;4840231;29;19921;-67
2023/01/19 20:42:15;;;;;;;;;;;;;;;1.33;72.79;97337.25;4839563;29;19924;-69
2023/01/19 20:44:40;;;;;;;;;;;;;;;1.32;73.29;97340.75;4840143;29;19928;-69
2023/01/19 20:47:05;;;;;;;;;;;;;;;1.31;72.41;97341.66;4856845;29;19916;-69
2023/01/19 20:49:31;;;;;;;;;;;;;;;1.30;72.81;97342.56;4841450;29;20334;-69
2023/01/19 20:51:56;;;;;;;;;;;;;;;1.29;72.95;97339.13;4840346;29;19976;-69
2023/01/19 20:54:23;;;;;;;;;;;;;;;1.28;72.86;97334.06;4841930;29;20009;-69
2023/01/19 20:56:48;;;;;;;;;;;;;;;1.29;73.15;97336.56;4856801;29;19917;-69
2023/01/19 20:59:13;;;;;;;;;;;;;;;1.30;73.16;97342.56;4841551;29;19920;-69
2023/01/19 21:01:38;;;;;;;;;;;;;;;1.30;73.25;97345.13;4839861;29;20293;-69
2023/01/19 21:04:04;;;;;;;;;;;;;;;1.27;72.02;97347.84;4853715;29;19960;-69
2023/01/19 21:06:29;;;;;;;;;;;;;;;1.27;72.50;97358.19;4835781;29;19928;-69
2023/01/19 21:08:54;;;;;;;;;;;;;;;5.32;100.00;97338.47;4840102;29;19924;-64
2023/01/19 21:11:20;;;;;;;;;;;;;;;4.94;72.66;97339.03;4841388;29;19920;-68
2023/01/19 21:13:45;;;;;;;;;;;;;;;4.05;66.67;97344.16;4840382;29;19933;-68
2023/01/19 21:16:10;;;;;;;;;;;;;;;3.49;66.24;97345.50;4838601;29;19939;-69
2023/01/19 21:18:36;;;;;;;;;;;;;;;3.05;66.32;97347.84;4840623;29;19928;-69
2023/01/19 21:21:01;;;;;;;;;;;;;;;2.70;67.23;97349.66;4838412;29;19927;-67
2023/01/19 21:23:26;;;;;;;;;;;;;;;2.42;67.87;97358.81;4842067;29;19924;-69
2023/01/19 21:25:52;;;;;;;;;;;;;;;2.19;67.98;97357.34;4843003;29;19924;-69
2023/01/19 21:28:17;;;;;;;;;;;;;;;2.00;68.58;97354.81;4841749;29;19944;-69